sensor_id;sensor_type;location;lat;lon;timestamp;P1;durP1;ratioP1;P2;durP2;ratioP2
40757;SDS011;26462;47.384;19.218;2022-08-18T00:01:08;3.47;;;2.60;;
40757;SDS011;26462;47.384;19.218;2022-08-18T00:03:40;6.05;;;3.13;;
40757;SDS011;26462;47.384;19.218;2022-08-18T00:06:26;4.00;;;2.83;;
40757;SDS011;26462;47.384;19.218;2022-08-18T00:08:56;5.55;;;3.42;;
40757;SDS011;26462;47.384;19.218;2022-08-18T00:11:24;12.68;;;3.38;;
40757;SDS011;26462;47.384;19.218;2022-08-18T00:14:08;8.18;;;3.42;;
40757;SDS011;26462;47.384;19.218;2022-08-18T00:16:49;7.70;;;3.45;;
40757;SDS011;26462;47.384;19.218;2022-08-18T00:19:18;6.55;;;3.92;;
40757;SDS011;26462;47.384;19.218;2022-08-18T00:22:06;7.03;;;4.03;;
40757;SDS011;26462;47.384;19.218;2022-08-18T00:24:40;7.18;;;4.30;;
40757;SDS011;26462;47.384;19.218;2022-08-18T00:27:35;5.97;;;3.95;;
40757;SDS011;26462;47.384;19.218;2022-08-18T00:30:05;7.93;;;3.88;;
40757;SDS011;26462;47.384;19.218;2022-08-18T00:32:39;7.53;;;4.07;;
40757;SDS011;26462;47.384;19.218;2022-08-18T00:37:56;9.10;;;4.28;;
40757;SDS011;26462;47.384;19.218;2022-08-18T00:40:27;7.93;;;4.50;;
40757;SDS011;26462;47.384;19.218;2022-08-18T00:43:04;8.02;;;4.70;;
40757;SDS011;26462;47.384;19.218;2022-08-18T00:45:35;9.50;;;4.50;;
40757;SDS011;26462;47.384;19.218;2022-08-18T00:48:07;10.10;;;5.35;;
40757;SDS011;26462;47.384;19.218;2022-08-18T00:50:45;8.10;;;5.10;;
40757;SDS011;26462;47.384;19.218;2022-08-18T00:53:21;11.27;;;5.30;;
40757;SDS011;26462;47.384;19.218;2022-08-18T00:56:09;8.35;;;4.85;;
40757;SDS011;26462;47.384;19.218;2022-08-18T00:58:52;7.82;;;5.07;;
40757;SDS011;26462;47.384;19.218;2022-08-18T01:01:26;9.07;;;5.47;;
40757;SDS011;26462;47.384;19.218;2022-08-18T01:04:24;11.18;;;5.72;;
40757;SDS011;26462;47.384;19.218;2022-08-18T01:06:51;9.75;;;4.90;;
40757;SDS011;26462;47.384;19.218;2022-08-18T01:09:23;10.38;;;5.60;;
40757;SDS011;26462;47.384;19.218;2022-08-18T01:11:50;9.20;;;5.30;;
40757;SDS011;26462;47.384;19.218;2022-08-18T01:14:18;8.50;;;4.90;;
40757;SDS011;26462;47.384;19.218;2022-08-18T01:16:47;8.40;;;5.68;;
40757;SDS011;26462;47.384;19.218;2022-08-18T01:19:34;9.40;;;6.45;;
40757;SDS011;26462;47.384;19.218;2022-08-18T01:25:15;9.68;;;5.82;;
40757;SDS011;26462;47.384;19.218;2022-08-18T01:28:04;8.20;;;5.10;;
40757;SDS011;26462;47.384;19.218;2022-08-18T01:30:43;7.30;;;5.78;;
40757;SDS011;26462;47.384;19.218;2022-08-18T01:33:14;7.37;;;5.43;;
40757;SDS011;26462;47.384;19.218;2022-08-18T01:35:44;9.32;;;5.53;;
40757;SDS011;26462;47.384;19.218;2022-08-18T01:38:18;9.60;;;5.55;;
40757;SDS011;26462;47.384;19.218;2022-08-18T01:40:48;12.35;;;6.63;;
40757;SDS011;26462;47.384;19.218;2022-08-18T01:43:36;13.73;;;6.32;;
40757;SDS011;26462;47.384;19.218;2022-08-18T01:46:05;8.20;;;5.63;;
40757;SDS011;26462;47.384;19.218;2022-08-18T01:48:34;10.77;;;6.03;;
40757;SDS011;26462;47.384;19.218;2022-08-18T01:51:02;11.55;;;5.82;;
40757;SDS011;26462;47.384;19.218;2022-08-18T01:53:32;10.23;;;5.80;;
40757;SDS011;26462;47.384;19.218;2022-08-18T01:56:00;9.43;;;5.68;;
40757;SDS011;26462;47.384;19.218;2022-08-18T01:58:31;9.90;;;6.07;;
40757;SDS011;26462;47.384;19.218;2022-08-18T02:01:00;10.65;;;6.20;;
40757;SDS011;26462;47.384;19.218;2022-08-18T02:03:30;9.77;;;5.55;;
40757;SDS011;26462;47.384;19.218;2022-08-18T02:06:05;9.18;;;6.32;;
40757;SDS011;26462;47.384;19.218;2022-08-18T02:08:40;9.30;;;5.93;;
40757;SDS011;26462;47.384;19.218;2022-08-18T02:11:13;10.07;;;6.20;;
40757;SDS011;26462;47.384;19.218;2022-08-18T02:13:40;9.93;;;6.38;;
40757;SDS011;26462;47.384;19.218;2022-08-18T02:16:09;11.85;;;5.97;;
40757;SDS011;26462;47.384;19.218;2022-08-18T02:18:37;12.05;;;7.10;;
40757;SDS011;26462;47.384;19.218;2022-08-18T02:21:15;11.15;;;6.18;;
40757;SDS011;26462;47.384;19.218;2022-08-18T02:23:45;10.90;;;6.13;;
40757;SDS011;26462;47.384;19.218;2022-08-18T02:26:21;12.32;;;6.88;;
40757;SDS011;26462;47.384;19.218;2022-08-18T02:28:49;14.10;;;6.07;;
40757;SDS011;26462;47.384;19.218;2022-08-18T02:31:18;11.52;;;6.55;;
40757;SDS011;26462;47.384;19.218;2022-08-18T02:33:47;9.85;;;6.07;;
40757;SDS011;26462;47.384;19.218;2022-08-18T02:36:18;11.95;;;6.30;;
40757;SDS011;26462;47.384;19.218;2022-08-18T02:38:50;9.52;;;5.50;;
40757;SDS011;26462;47.384;19.218;2022-08-18T02:41:25;9.18;;;6.25;;
40757;SDS011;26462;47.384;19.218;2022-08-18T02:43:57;10.40;;;6.22;;
40757;SDS011;26462;47.384;19.218;2022-08-18T02:46:26;11.10;;;6.22;;
40757;SDS011;26462;47.384;19.218;2022-08-18T02:48:56;12.03;;;6.00;;
40757;SDS011;26462;47.384;19.218;2022-08-18T02:51:25;7.80;;;5.70;;
40757;SDS011;26462;47.384;19.218;2022-08-18T02:53:53;12.93;;;6.55;;
40757;SDS011;26462;47.384;19.218;2022-08-18T02:56:21;11.73;;;6.15;;
40757;SDS011;26462;47.384;19.218;2022-08-18T02:59:08;11.50;;;6.68;;
40757;SDS011;26462;47.384;19.218;2022-08-18T03:01:40;14.48;;;7.25;;
40757;SDS011;26462;47.384;19.218;2022-08-18T03:04:10;11.18;;;5.38;;
40757;SDS011;26462;47.384;19.218;2022-08-18T03:06:41;9.63;;;6.47;;
40757;SDS011;26462;47.384;19.218;2022-08-18T03:09:11;11.93;;;6.40;;
40757;SDS011;26462;47.384;19.218;2022-08-18T03:11:41;12.65;;;6.40;;
40757;SDS011;26462;47.384;19.218;2022-08-18T03:14:09;11.98;;;6.68;;
40757;SDS011;26462;47.384;19.218;2022-08-18T03:16:42;9.45;;;6.40;;
40757;SDS011;26462;47.384;19.218;2022-08-18T03:19:20;12.05;;;7.03;;
40757;SDS011;26462;47.384;19.218;2022-08-18T03:21:49;12.32;;;7.00;;
40757;SDS011;26462;47.384;19.218;2022-08-18T03:24:18;10.82;;;6.38;;
40757;SDS011;26462;47.384;19.218;2022-08-18T03:26:49;12.45;;;7.13;;
40757;SDS011;26462;47.384;19.218;2022-08-18T03:29:19;11.27;;;6.95;;
40757;SDS011;26462;47.384;19.218;2022-08-18T03:31:48;11.93;;;7.18;;
40757;SDS011;26462;47.384;19.218;2022-08-18T03:34:17;12.63;;;7.22;;
40757;SDS011;26462;47.384;19.218;2022-08-18T03:36:48;12.82;;;7.50;;
40757;SDS011;26462;47.384;19.218;2022-08-18T03:39:16;11.35;;;7.32;;
40757;SDS011;26462;47.384;19.218;2022-08-18T03:41:45;11.90;;;6.85;;
40757;SDS011;26462;47.384;19.218;2022-08-18T03:44:28;12.38;;;7.28;;
40757;SDS011;26462;47.384;19.218;2022-08-18T03:47:04;14.77;;;7.07;;
40757;SDS011;26462;47.384;19.218;2022-08-18T03:49:35;11.23;;;7.28;;
40757;SDS011;26462;47.384;19.218;2022-08-18T03:52:03;11.05;;;6.80;;
40757;SDS011;26462;47.384;19.218;2022-08-18T03:54:34;12.53;;;7.43;;
40757;SDS011;26462;47.384;19.218;2022-08-18T03:57:06;11.43;;;7.57;;
40757;SDS011;26462;47.384;19.218;2022-08-18T03:59:35;12.77;;;7.63;;
40757;SDS011;26462;47.384;19.218;2022-08-18T04:02:03;12.02;;;8.18;;
40757;SDS011;26462;47.384;19.218;2022-08-18T04:04:31;10.93;;;7.97;;
40757;SDS011;26462;47.384;19.218;2022-08-18T04:07:01;13.68;;;8.63;;
40757;SDS011;26462;47.384;19.218;2022-08-18T04:09:33;12.07;;;7.68;;
40757;SDS011;26462;47.384;19.218;2022-08-18T04:12:06;12.45;;;7.43;;
40757;SDS011;26462;47.384;19.218;2022-08-18T04:14:42;10.82;;;8.10;;
40757;SDS011;26462;47.384;19.218;2022-08-18T04:17:18;15.30;;;8.43;;
40757;SDS011;26462;47.384;19.218;2022-08-18T04:19:51;14.82;;;7.80;;
40757;SDS011;26462;47.384;19.218;2022-08-18T04:22:20;15.18;;;8.55;;
40757;SDS011;26462;47.384;19.218;2022-08-18T04:24:51;13.70;;;8.32;;
40757;SDS011;26462;47.384;19.218;2022-08-18T04:27:20;13.20;;;7.47;;
40757;SDS011;26462;47.384;19.218;2022-08-18T04:29:48;17.52;;;9.23;;
40757;SDS011;26462;47.384;19.218;2022-08-18T04:32:15;16.05;;;8.75;;
40757;SDS011;26462;47.384;19.218;2022-08-18T04:34:45;16.13;;;8.93;;
40757;SDS011;26462;47.384;19.218;2022-08-18T04:37:12;11.63;;;8.45;;
40757;SDS011;26462;47.384;19.218;2022-08-18T04:39:41;12.77;;;8.30;;
40757;SDS011;26462;47.384;19.218;2022-08-18T04:42:09;13.25;;;7.82;;
40757;SDS011;26462;47.384;19.218;2022-08-18T04:44:36;11.68;;;8.07;;
40757;SDS011;26462;47.384;19.218;2022-08-18T04:47:05;13.55;;;7.97;;
40757;SDS011;26462;47.384;19.218;2022-08-18T04:49:36;15.07;;;8.40;;
40757;SDS011;26462;47.384;19.218;2022-08-18T04:52:04;12.60;;;8.27;;
40757;SDS011;26462;47.384;19.218;2022-08-18T04:55:06;12.27;;;7.93;;
40757;SDS011;26462;47.384;19.218;2022-08-18T04:57:35;14.85;;;8.98;;
40757;SDS011;26462;47.384;19.218;2022-08-18T05:00:03;15.70;;;8.23;;
40757;SDS011;26462;47.384;19.218;2022-08-18T05:02:32;13.68;;;8.32;;
40757;SDS011;26462;47.384;19.218;2022-08-18T05:05:00;15.77;;;8.88;;
40757;SDS011;26462;47.384;19.218;2022-08-18T05:07:29;14.63;;;9.15;;
40757;SDS011;26462;47.384;19.218;2022-08-18T05:09:57;12.55;;;8.23;;
40757;SDS011;26462;47.384;19.218;2022-08-18T05:12:24;13.45;;;8.07;;
40757;SDS011;26462;47.384;19.218;2022-08-18T05:14:52;14.82;;;8.68;;
40757;SDS011;26462;47.384;19.218;2022-08-18T05:17:23;11.80;;;8.18;;
40757;SDS011;26462;47.384;19.218;2022-08-18T05:19:58;12.40;;;9.18;;
40757;SDS011;26462;47.384;19.218;2022-08-18T05:22:28;13.43;;;8.55;;
40757;SDS011;26462;47.384;19.218;2022-08-18T05:24:57;13.18;;;8.40;;
40757;SDS011;26462;47.384;19.218;2022-08-18T05:27:29;12.13;;;8.30;;
40757;SDS011;26462;47.384;19.218;2022-08-18T05:30:01;14.57;;;9.02;;
40757;SDS011;26462;47.384;19.218;2022-08-18T05:32:31;11.70;;;7.90;;
40757;SDS011;26462;47.384;19.218;2022-08-18T05:35:22;12.93;;;7.80;;
40757;SDS011;26462;47.384;19.218;2022-08-18T05:40:32;15.52;;;8.38;;
40757;SDS011;26462;47.384;19.218;2022-08-18T05:43:01;13.00;;;8.80;;
40757;SDS011;26462;47.384;19.218;2022-08-18T05:45:30;12.88;;;7.40;;
40757;SDS011;26462;47.384;19.218;2022-08-18T05:48:00;11.75;;;7.32;;
40757;SDS011;26462;47.384;19.218;2022-08-18T05:50:28;13.05;;;7.82;;
40757;SDS011;26462;47.384;19.218;2022-08-18T05:53:05;10.88;;;7.60;;
40757;SDS011;26462;47.384;19.218;2022-08-18T05:55:47;9.30;;;7.50;;
40757;SDS011;26462;47.384;19.218;2022-08-18T05:58:48;10.05;;;7.28;;
40757;SDS011;26462;47.384;19.218;2022-08-18T06:01:18;10.55;;;7.63;;
40757;SDS011;26462;47.384;19.218;2022-08-18T06:06:42;10.50;;;7.20;;
40757;SDS011;26462;47.384;19.218;2022-08-18T06:09:18;12.25;;;7.40;;
40757;SDS011;26462;47.384;19.218;2022-08-18T06:11:52;11.23;;;7.35;;
40757;SDS011;26462;47.384;19.218;2022-08-18T06:14:26;15.50;;;7.22;;
40757;SDS011;26462;47.384;19.218;2022-08-18T06:17:01;13.05;;;7.45;;
40757;SDS011;26462;47.384;19.218;2022-08-18T06:33:12;10.70;;;6.13;;
40757;SDS011;26462;47.384;19.218;2022-08-18T06:35:58;8.15;;;6.38;;
40757;SDS011;26462;47.384;19.218;2022-08-18T06:38:34;10.68;;;6.38;;
40757;SDS011;26462;47.384;19.218;2022-08-18T06:52:34;8.55;;;6.00;;
40757;SDS011;26462;47.384;19.218;2022-08-18T06:55:30;8.60;;;6.50;;
40757;SDS011;26462;47.384;19.218;2022-08-18T07:00:43;7.90;;;5.10;;
40757;SDS011;26462;47.384;19.218;2022-08-18T07:08:48;8.68;;;5.22;;
40757;SDS011;26462;47.384;19.218;2022-08-18T07:11:24;12.30;;;6.15;;
40757;SDS011;26462;47.384;19.218;2022-08-18T07:13:56;8.98;;;5.82;;
40757;SDS011;26462;47.384;19.218;2022-08-18T07:16:42;7.03;;;5.57;;
40757;SDS011;26462;47.384;19.218;2022-08-18T07:19:26;8.23;;;5.38;;
40757;SDS011;26462;47.384;19.218;2022-08-18T07:24:43;8.25;;;5.32;;
40757;SDS011;26462;47.384;19.218;2022-08-18T07:27:59;10.18;;;5.75;;
40757;SDS011;26462;47.384;19.218;2022-08-18T07:30:08;8.68;;;6.18;;
40757;SDS011;26462;47.384;19.218;2022-08-18T07:41:05;7.85;;;5.70;;
40757;SDS011;26462;47.384;19.218;2022-08-18T07:43:41;8.18;;;5.68;;
40757;SDS011;26462;47.384;19.218;2022-08-18T07:48:52;8.13;;;5.90;;
40757;SDS011;26462;47.384;19.218;2022-08-18T07:54:14;7.05;;;5.18;;
40757;SDS011;26462;47.384;19.218;2022-08-18T07:57:22;9.30;;;5.57;;
40757;SDS011;26462;47.384;19.218;2022-08-18T08:00:13;8.18;;;5.40;;
40757;SDS011;26462;47.384;19.218;2022-08-18T08:34:23;8.85;;;5.15;;
40757;SDS011;26462;47.384;19.218;2022-08-18T08:37:17;7.03;;;4.93;;
40757;SDS011;26462;47.384;19.218;2022-08-18T08:42:55;8.88;;;5.78;;
40757;SDS011;26462;47.384;19.218;2022-08-18T08:45:34;7.77;;;5.37;;
40757;SDS011;26462;47.384;19.218;2022-08-18T08:50:56;7.97;;;4.55;;
40757;SDS011;26462;47.384;19.218;2022-08-18T08:53:42;7.90;;;4.88;;
40757;SDS011;26462;47.384;19.218;2022-08-18T08:56:16;6.97;;;5.32;;
40757;SDS011;26462;47.384;19.218;2022-08-18T09:01:20;7.57;;;5.03;;
40757;SDS011;26462;47.384;19.218;2022-08-18T09:22:52;7.43;;;4.68;;
40757;SDS011;26462;47.384;19.218;2022-08-18T09:42:01;7.47;;;4.65;;
40757;SDS011;26462;47.384;19.218;2022-08-18T09:55:08;5.67;;;4.00;;
40757;SDS011;26462;47.384;19.218;2022-08-18T10:01:16;5.15;;;3.92;;
40757;SDS011;26462;47.384;19.218;2022-08-18T10:07:12;7.95;;;3.70;;
40757;SDS011;26462;47.384;19.218;2022-08-18T10:19:37;5.20;;;3.17;;
40757;SDS011;26462;47.384;19.218;2022-08-18T10:22:35;5.60;;;3.10;;
40757;SDS011;26462;47.384;19.218;2022-08-18T10:25:13;4.90;;;3.22;;
40757;SDS011;26462;47.384;19.218;2022-08-18T10:28:09;3.30;;;2.65;;
40757;SDS011;26462;47.384;19.218;2022-08-18T10:39:17;4.70;;;3.15;;
40757;SDS011;26462;47.384;19.218;2022-08-18T10:41:50;3.88;;;3.03;;
40757;SDS011;26462;47.384;19.218;2022-08-18T10:44:20;4.20;;;2.70;;
40757;SDS011;26462;47.384;19.218;2022-08-18T10:46:55;11.68;;;4.18;;
40757;SDS011;26462;47.384;19.218;2022-08-18T10:49:27;6.32;;;3.20;;
40757;SDS011;26462;47.384;19.218;2022-08-18T10:54:47;6.40;;;2.92;;
40757;SDS011;26462;47.384;19.218;2022-08-18T11:00:22;4.57;;;2.97;;
40757;SDS011;26462;47.384;19.218;2022-08-18T11:03:19;5.65;;;3.30;;
40757;SDS011;26462;47.384;19.218;2022-08-18T11:06:21;4.93;;;2.78;;
40757;SDS011;26462;47.384;19.218;2022-08-18T11:08:56;2.95;;;2.53;;
40757;SDS011;26462;47.384;19.218;2022-08-18T11:11:32;4.63;;;2.60;;
40757;SDS011;26462;47.384;19.218;2022-08-18T11:17:23;6.97;;;2.15;;
40757;SDS011;26462;47.384;19.218;2022-08-18T11:19:55;3.85;;;2.30;;
40757;SDS011;26462;47.384;19.218;2022-08-18T11:22:27;2.08;;;1.70;;
40757;SDS011;26462;47.384;19.218;2022-08-18T11:25:50;4.32;;;1.80;;
40757;SDS011;26462;47.384;19.218;2022-08-18T11:28:18;4.75;;;1.90;;
40757;SDS011;26462;47.384;19.218;2022-08-18T11:31:01;4.28;;;1.95;;
40757;SDS011;26462;47.384;19.218;2022-08-18T11:34:06;4.55;;;2.03;;
40757;SDS011;26462;47.384;19.218;2022-08-18T11:37:08;5.13;;;2.70;;
40757;SDS011;26462;47.384;19.218;2022-08-18T11:39:41;4.45;;;2.53;;
40757;SDS011;26462;47.384;19.218;2022-08-18T11:42:13;4.68;;;2.35;;
40757;SDS011;26462;47.384;19.218;2022-08-18T11:44:52;5.32;;;2.40;;
40757;SDS011;26462;47.384;19.218;2022-08-18T11:47:21;3.80;;;2.60;;
40757;SDS011;26462;47.384;19.218;2022-08-18T11:50:09;4.32;;;2.50;;
40757;SDS011;26462;47.384;19.218;2022-08-18T11:52:49;4.72;;;2.17;;
40757;SDS011;26462;47.384;19.218;2022-08-18T11:55:27;3.92;;;2.65;;
40757;SDS011;26462;47.384;19.218;2022-08-18T11:57:56;3.97;;;2.05;;
40757;SDS011;26462;47.384;19.218;2022-08-18T12:03:25;4.72;;;2.70;;
40757;SDS011;26462;47.384;19.218;2022-08-18T12:05:58;4.68;;;3.10;;
40757;SDS011;26462;47.384;19.218;2022-08-18T12:08:58;4.93;;;2.53;;
40757;SDS011;26462;47.384;19.218;2022-08-18T12:11:35;4.85;;;2.67;;
40757;SDS011;26462;47.384;19.218;2022-08-18T12:14:17;4.57;;;2.30;;
40757;SDS011;26462;47.384;19.218;2022-08-18T12:16:59;4.18;;;2.50;;
40757;SDS011;26462;47.384;19.218;2022-08-18T12:19:27;4.90;;;2.92;;
40757;SDS011;26462;47.384;19.218;2022-08-18T12:22:00;7.47;;;2.60;;
40757;SDS011;26462;47.384;19.218;2022-08-18T12:24:38;4.45;;;2.70;;
40757;SDS011;26462;47.384;19.218;2022-08-18T12:27:05;4.85;;;2.67;;
40757;SDS011;26462;47.384;19.218;2022-08-18T12:29:54;7.70;;;3.70;;
40757;SDS011;26462;47.384;19.218;2022-08-18T12:32:23;4.20;;;2.90;;
40757;SDS011;26462;47.384;19.218;2022-08-18T12:35:12;3.83;;;2.65;;
40757;SDS011;26462;47.384;19.218;2022-08-18T12:37:43;4.60;;;2.90;;
40757;SDS011;26462;47.384;19.218;2022-08-18T12:40:30;6.20;;;3.10;;
40757;SDS011;26462;47.384;19.218;2022-08-18T12:42:58;3.97;;;3.03;;
40757;SDS011;26462;47.384;19.218;2022-08-18T12:45:26;5.80;;;3.10;;
40757;SDS011;26462;47.384;19.218;2022-08-18T12:47:54;5.60;;;3.55;;
40757;SDS011;26462;47.384;19.218;2022-08-18T12:50:21;4.20;;;3.15;;
40757;SDS011;26462;47.384;19.218;2022-08-18T12:53:09;4.13;;;3.00;;
40757;SDS011;26462;47.384;19.218;2022-08-18T12:55:39;3.92;;;3.20;;
40757;SDS011;26462;47.384;19.218;2022-08-18T12:58:11;7.18;;;4.13;;
40757;SDS011;26462;47.384;19.218;2022-08-18T13:00:39;5.95;;;3.85;;
40757;SDS011;26462;47.384;19.218;2022-08-18T13:03:06;4.97;;;4.05;;
40757;SDS011;26462;47.384;19.218;2022-08-18T13:05:34;7.40;;;4.57;;
40757;SDS011;26462;47.384;19.218;2022-08-18T13:08:03;5.70;;;4.20;;
40757;SDS011;26462;47.384;19.218;2022-08-18T13:10:55;8.80;;;4.65;;
40757;SDS011;26462;47.384;19.218;2022-08-18T13:13:23;5.13;;;4.30;;
40757;SDS011;26462;47.384;19.218;2022-08-18T13:15:55;5.57;;;4.40;;
40757;SDS011;26462;47.384;19.218;2022-08-18T13:18:28;5.80;;;4.63;;
40757;SDS011;26462;47.384;19.218;2022-08-18T13:20:57;11.10;;;6.22;;
40757;SDS011;26462;47.384;19.218;2022-08-18T13:23:24;9.15;;;6.68;;
40757;SDS011;26462;47.384;19.218;2022-08-18T13:25:53;10.02;;;7.32;;
40757;SDS011;26462;47.384;19.218;2022-08-18T13:28:28;7.88;;;6.78;;
40757;SDS011;26462;47.384;19.218;2022-08-18T13:31:15;8.43;;;6.72;;
40757;SDS011;26462;47.384;19.218;2022-08-18T13:33:48;8.98;;;7.82;;
40757;SDS011;26462;47.384;19.218;2022-08-18T13:36:24;9.57;;;6.93;;
40757;SDS011;26462;47.384;19.218;2022-08-18T13:38:54;9.93;;;6.80;;
40757;SDS011;26462;47.384;19.218;2022-08-18T13:41:21;9.32;;;6.95;;
40757;SDS011;26462;47.384;19.218;2022-08-18T13:43:50;8.57;;;7.03;;
40757;SDS011;26462;47.384;19.218;2022-08-18T13:46:18;12.77;;;8.15;;
40757;SDS011;26462;47.384;19.218;2022-08-18T13:48:55;11.05;;;7.90;;
40757;SDS011;26462;47.384;19.218;2022-08-18T13:51:26;14.88;;;8.35;;
40757;SDS011;26462;47.384;19.218;2022-08-18T13:53:54;10.52;;;7.97;;
40757;SDS011;26462;47.384;19.218;2022-08-18T13:56:43;13.10;;;8.07;;
40757;SDS011;26462;47.384;19.218;2022-08-18T13:59:17;10.40;;;8.40;;
40757;SDS011;26462;47.384;19.218;2022-08-18T14:01:48;10.98;;;9.10;;
40757;SDS011;26462;47.384;19.218;2022-08-18T14:04:18;12.73;;;9.90;;
40757;SDS011;26462;47.384;19.218;2022-08-18T14:06:52;10.95;;;9.55;;
40757;SDS011;26462;47.384;19.218;2022-08-18T14:09:25;12.40;;;9.23;;
40757;SDS011;26462;47.384;19.218;2022-08-18T14:12:04;12.93;;;7.93;;
40757;SDS011;26462;47.384;19.218;2022-08-18T14:14:48;11.63;;;8.77;;
40757;SDS011;26462;47.384;19.218;2022-08-18T14:17:21;11.52;;;7.88;;
40757;SDS011;26462;47.384;19.218;2022-08-18T14:19:50;12.00;;;8.48;;
40757;SDS011;26462;47.384;19.218;2022-08-18T14:22:51;11.38;;;8.90;;
40757;SDS011;26462;47.384;19.218;2022-08-18T14:25:38;11.63;;;8.50;;
40757;SDS011;26462;47.384;19.218;2022-08-18T14:28:25;11.13;;;8.98;;
40757;SDS011;26462;47.384;19.218;2022-08-18T14:30:55;11.25;;;8.60;;
40757;SDS011;26462;47.384;19.218;2022-08-18T14:33:25;12.50;;;6.22;;
40757;SDS011;26462;47.384;19.218;2022-08-18T14:36:13;13.10;;;8.98;;
40757;SDS011;26462;47.384;19.218;2022-08-18T14:38:43;13.10;;;9.10;;
40757;SDS011;26462;47.384;19.218;2022-08-18T14:41:11;12.90;;;9.55;;
40757;SDS011;26462;47.384;19.218;2022-08-18T14:43:40;10.00;;;8.32;;
40757;SDS011;26462;47.384;19.218;2022-08-18T14:46:30;10.07;;;7.15;;
40757;SDS011;26462;47.384;19.218;2022-08-18T14:48:58;9.32;;;6.15;;
40757;SDS011;26462;47.384;19.218;2022-08-18T14:51:30;10.13;;;6.40;;
40757;SDS011;26462;47.384;19.218;2022-08-18T14:53:59;7.00;;;6.00;;
40757;SDS011;26462;47.384;19.218;2022-08-18T14:56:27;10.18;;;6.15;;
40757;SDS011;26462;47.384;19.218;2022-08-18T14:58:59;7.15;;;5.60;;
40757;SDS011;26462;47.384;19.218;2022-08-18T15:01:26;8.60;;;5.78;;
40757;SDS011;26462;47.384;19.218;2022-08-18T15:04:00;9.27;;;6.40;;
40757;SDS011;26462;47.384;19.218;2022-08-18T15:06:44;6.15;;;4.90;;
40757;SDS011;26462;47.384;19.218;2022-08-18T15:09:21;10.45;;;6.57;;
40757;SDS011;26462;47.384;19.218;2022-08-18T15:11:53;9.30;;;6.22;;
40757;SDS011;26462;47.384;19.218;2022-08-18T15:14:22;9.63;;;5.65;;
40757;SDS011;26462;47.384;19.218;2022-08-18T15:17:02;7.82;;;5.57;;
40757;SDS011;26462;47.384;19.218;2022-08-18T15:19:38;7.82;;;4.70;;
40757;SDS011;26462;47.384;19.218;2022-08-18T15:22:25;4.57;;;3.25;;
40757;SDS011;26462;47.384;19.218;2022-08-18T15:25:13;4.20;;;2.67;;
40757;SDS011;26462;47.384;19.218;2022-08-18T15:27:59;4.82;;;2.17;;
40757;SDS011;26462;47.384;19.218;2022-08-18T15:30:26;4.55;;;1.88;;
40757;SDS011;26462;47.384;19.218;2022-08-18T15:32:54;3.83;;;2.00;;
40757;SDS011;26462;47.384;19.218;2022-08-18T15:35:22;6.00;;;1.55;;
40757;SDS011;26462;47.384;19.218;2022-08-18T15:37:49;4.78;;;1.25;;
40757;SDS011;26462;47.384;19.218;2022-08-18T15:40:19;2.95;;;1.48;;
40757;SDS011;26462;47.384;19.218;2022-08-18T15:43:00;3.35;;;1.58;;
40757;SDS011;26462;47.384;19.218;2022-08-18T15:45:37;4.25;;;1.27;;
40757;SDS011;26462;47.384;19.218;2022-08-18T15:48:23;3.33;;;1.48;;
40757;SDS011;26462;47.384;19.218;2022-08-18T15:50:51;3.67;;;1.73;;
40757;SDS011;26462;47.384;19.218;2022-08-18T15:53:20;3.22;;;2.00;;
40757;SDS011;26462;47.384;19.218;2022-08-18T15:55:55;5.80;;;2.13;;
40757;SDS011;26462;47.384;19.218;2022-08-18T15:58:22;4.40;;;1.98;;
40757;SDS011;26462;47.384;19.218;2022-08-18T16:00:54;3.20;;;1.70;;
40757;SDS011;26462;47.384;19.218;2022-08-18T16:03:24;8.18;;;2.30;;
40757;SDS011;26462;47.384;19.218;2022-08-18T16:05:52;6.22;;;1.90;;
40757;SDS011;26462;47.384;19.218;2022-08-18T16:08:21;3.05;;;2.13;;
40757;SDS011;26462;47.384;19.218;2022-08-18T16:10:50;6.45;;;1.88;;
40757;SDS011;26462;47.384;19.218;2022-08-18T16:13:20;5.22;;;1.63;;
40757;SDS011;26462;47.384;19.218;2022-08-18T16:15:49;3.58;;;1.33;;
40757;SDS011;26462;47.384;19.218;2022-08-18T16:18:18;2.15;;;1.45;;
40757;SDS011;26462;47.384;19.218;2022-08-18T16:20:49;5.80;;;1.60;;
40757;SDS011;26462;47.384;19.218;2022-08-18T16:23:21;2.40;;;1.13;;
40757;SDS011;26462;47.384;19.218;2022-08-18T16:25:49;3.67;;;1.40;;
40757;SDS011;26462;47.384;19.218;2022-08-18T16:28:16;5.50;;;1.45;;
40757;SDS011;26462;47.384;19.218;2022-08-18T16:30:43;6.30;;;1.63;;
40757;SDS011;26462;47.384;19.218;2022-08-18T16:33:12;3.35;;;1.40;;
40757;SDS011;26462;47.384;19.218;2022-08-18T16:35:39;3.88;;;1.35;;
40757;SDS011;26462;47.384;19.218;2022-08-18T16:38:11;3.45;;;1.40;;
40757;SDS011;26462;47.384;19.218;2022-08-18T16:40:39;4.35;;;1.33;;
40757;SDS011;26462;47.384;19.218;2022-08-18T16:43:06;6.30;;;1.50;;
40757;SDS011;26462;47.384;19.218;2022-08-18T16:45:38;6.80;;;1.80;;
40757;SDS011;26462;47.384;19.218;2022-08-18T16:48:05;4.10;;;1.60;;
40757;SDS011;26462;47.384;19.218;2022-08-18T16:50:34;5.45;;;1.63;;
40757;SDS011;26462;47.384;19.218;2022-08-18T16:53:02;2.55;;;1.40;;
40757;SDS011;26462;47.384;19.218;2022-08-18T16:55:30;2.78;;;1.70;;
40757;SDS011;26462;47.384;19.218;2022-08-18T16:57:57;3.25;;;1.20;;
40757;SDS011;26462;47.384;19.218;2022-08-18T17:00:43;7.72;;;1.73;;
40757;SDS011;26462;47.384;19.218;2022-08-18T17:03:28;5.07;;;1.35;;
40757;SDS011;26462;47.384;19.218;2022-08-18T17:06:15;3.60;;;1.30;;
40757;SDS011;26462;47.384;19.218;2022-08-18T17:08:44;5.45;;;1.48;;
40757;SDS011;26462;47.384;19.218;2022-08-18T17:11:13;3.75;;;1.40;;
40757;SDS011;26462;47.384;19.218;2022-08-18T17:13:43;4.97;;;1.58;;
40757;SDS011;26462;47.384;19.218;2022-08-18T17:16:12;4.35;;;1.38;;
40757;SDS011;26462;47.384;19.218;2022-08-18T17:18:40;2.83;;;1.17;;
40757;SDS011;26462;47.384;19.218;2022-08-18T17:21:10;7.63;;;1.60;;
40757;SDS011;26462;47.384;19.218;2022-08-18T17:23:39;4.10;;;1.73;;
40757;SDS011;26462;47.384;19.218;2022-08-18T17:26:08;6.50;;;2.00;;
40757;SDS011;26462;47.384;19.218;2022-08-18T17:28:45;5.10;;;1.98;;
40757;SDS011;26462;47.384;19.218;2022-08-18T17:31:21;6.85;;;1.70;;
40757;SDS011;26462;47.384;19.218;2022-08-18T17:33:50;6.15;;;1.48;;
40757;SDS011;26462;47.384;19.218;2022-08-18T17:36:30;9.27;;;1.85;;
40757;SDS011;26462;47.384;19.218;2022-08-18T17:39:05;11.18;;;2.65;;
40757;SDS011;26462;47.384;19.218;2022-08-18T17:41:36;10.80;;;2.95;;
40757;SDS011;26462;47.384;19.218;2022-08-18T17:44:23;12.15;;;2.97;;
40757;SDS011;26462;47.384;19.218;2022-08-18T17:46:57;11.23;;;2.30;;
40757;SDS011;26462;47.384;19.218;2022-08-18T17:49:31;10.35;;;2.70;;
40757;SDS011;26462;47.384;19.218;2022-08-18T17:52:46;9.50;;;2.00;;
40757;SDS011;26462;47.384;19.218;2022-08-18T17:55:28;12.77;;;2.95;;
40757;SDS011;26462;47.384;19.218;2022-08-18T17:58:09;12.98;;;2.00;;
40757;SDS011;26462;47.384;19.218;2022-08-18T18:00:43;14.02;;;2.28;;
40757;SDS011;26462;47.384;19.218;2022-08-18T18:03:11;25.13;;;3.20;;
40757;SDS011;26462;47.384;19.218;2022-08-18T18:05:49;20.48;;;3.00;;
40757;SDS011;26462;47.384;19.218;2022-08-18T18:08:18;19.80;;;3.25;;
40757;SDS011;26462;47.384;19.218;2022-08-18T18:10:47;15.73;;;2.42;;
40757;SDS011;26462;47.384;19.218;2022-08-18T18:13:30;22.45;;;3.15;;
40757;SDS011;26462;47.384;19.218;2022-08-18T18:15:59;12.73;;;3.20;;